Airfield :
LOGIN :

Register | Disclaimer

   EN    FR    IT 

 










Legend :    VFR   Marginal VFR   IFR   Intensive IFR   Very Intensive IFR
Visi :
Ceiling :
>= 8 km
>= 3000ft
5 to 8 km
1000 to 3000 ft
1500m to 5 km
500 to 1000 ft
800 to 1500m
200 to 500 ft
< 800m
< 200 ft
Symbols :   Thunderstorms  Fog  Heavy snow  Heavy precipitations  Wind > 20 kt
SIGMETs :     Misc.  Thunderstorms  Icing  Turbulence  Mountain Waves  Volcanic Ashes






- Airport Elevation : 1161 ft
- IATA code : RJL


LELO - Logroño-Agoncillo

CURRENT METAR :
  • 081430Z AUTO 11003KT 030V160 CAVOK 34/18 Q1018

EXPIRED METARs :
  • 081400Z AUTO VRB03KT CAVOK 33/15 Q1018
  • 081330Z AUTO 12003KT 030V180 CAVOK 33/15 Q1018
  • 081300Z AUTO 12003KT 070V210 CAVOK 32/16 Q1019
  • 081230Z AUTO VRB03KT CAVOK 32/17 Q1019
  • 081200Z AUTO VRB03KT CAVOK 31/17 Q1020

TAF TAF LELO
Valid from the 08 at 15:00 until the 09 at 15:00 UTC


081400Z 0815/0915 VRB05KT CAVOK TX37/0816Z TN21/0906Z
PROB40
TEMPO 0818/0823 VRB20G35KT TSRA SCT045CB



MET'MAP, your aeronautical weather chart ! - Copyright ORBIFLY December 2007 - Disclaimer

ORBIFLY MET'MAP TEAM :

Programming & Development : Alexandra Zaïnal
Concept & original design : Baudouin d'Aumeries
Assistance for programming : Marc-Olivier Méhu
Technical & hardware support : Manuel Goepfert

Contact : metmap@orbifly.com




SOURCES & CREDITS :

   NOAA